sensor_id;sensor_type;location;lat;lon;timestamp;P1;durP1;ratioP1;P2;durP2;ratioP2
23490;SDS011;14683;50.038;8.078;2024-02-23T02:53:33;4.47;;;1.17;;
23490;SDS011;14683;50.038;8.078;2024-02-23T02:56:34;5.10;;;0.95;;
23490;SDS011;14683;50.038;8.078;2024-02-23T02:59:35;2.55;;;0.82;;
23490;SDS011;14683;50.038;8.078;2024-02-23T03:02:37;2.45;;;0.60;;
23490;SDS011;14683;50.038;8.078;2024-02-23T03:05:38;5.13;;;1.05;;
23490;SDS011;14683;50.038;8.078;2024-02-23T03:08:41;2.45;;;0.90;;
23490;SDS011;14683;50.038;8.078;2024-02-23T03:11:43;2.97;;;0.90;;
23490;SDS011;14683;50.038;8.078;2024-02-23T03:14:44;0.90;;;0.73;;
23490;SDS011;14683;50.038;8.078;2024-02-23T03:17:45;2.13;;;0.82;;
23490;SDS011;14683;50.038;8.078;2024-02-23T03:20:46;1.65;;;0.90;;
23490;SDS011;14683;50.038;8.078;2024-02-23T03:23:47;4.82;;;0.98;;
23490;SDS011;14683;50.038;8.078;2024-02-23T03:26:49;1.55;;;0.73;;
23490;SDS011;14683;50.038;8.078;2024-02-23T03:29:50;2.33;;;0.95;;
23490;SDS011;14683;50.038;8.078;2024-02-23T03:32:51;2.30;;;0.80;;
23490;SDS011;14683;50.038;8.078;2024-02-23T03:35:52;2.60;;;0.95;;
23490;SDS011;14683;50.038;8.078;2024-02-23T03:38:53;1.95;;;0.73;;
23490;SDS011;14683;50.038;8.078;2024-02-23T03:41:54;1.45;;;0.63;;
23490;SDS011;14683;50.038;8.078;2024-02-23T03:44:55;4.47;;;0.85;;
23490;SDS011;14683;50.038;8.078;2024-02-23T03:47:57;1.45;;;0.60;;
23490;SDS011;14683;50.038;8.078;2024-02-23T03:50:58;2.63;;;1.02;;
23490;SDS011;14683;50.038;8.078;2024-02-23T03:53:59;1.90;;;0.85;;
23490;SDS011;14683;50.038;8.078;2024-02-23T03:57:00;3.80;;;0.90;;
23490;SDS011;14683;50.038;8.078;2024-02-23T04:00:01;2.30;;;0.90;;
23490;SDS011;14683;50.038;8.078;2024-02-23T04:03:12;3.85;;;0.75;;
23490;SDS011;14683;50.038;8.078;2024-02-23T04:06:13;3.17;;;0.75;;
23490;SDS011;14683;50.038;8.078;2024-02-23T04:09:14;4.95;;;0.90;;
23490;SDS011;14683;50.038;8.078;2024-02-23T04:12:15;1.23;;;0.80;;
23490;SDS011;14683;50.038;8.078;2024-02-23T04:15:17;4.47;;;1.13;;
23490;SDS011;14683;50.038;8.078;2024-02-23T04:18:18;5.18;;;1.20;;
23490;SDS011;14683;50.038;8.078;2024-02-23T04:21:19;4.68;;;0.95;;
23490;SDS011;14683;50.038;8.078;2024-02-23T04:24:21;1.95;;;0.77;;
23490;SDS011;14683;50.038;8.078;2024-02-23T04:27:22;3.53;;;1.08;;
23490;SDS011;14683;50.038;8.078;2024-02-23T04:30:24;3.22;;;0.80;;
23490;SDS011;14683;50.038;8.078;2024-02-23T04:33:25;2.78;;;1.00;;
23490;SDS011;14683;50.038;8.078;2024-02-23T04:36:26;5.10;;;1.25;;
23490;SDS011;14683;50.038;8.078;2024-02-23T04:39:27;3.65;;;0.80;;
23490;SDS011;14683;50.038;8.078;2024-02-23T04:42:28;4.43;;;1.10;;
23490;SDS011;14683;50.038;8.078;2024-02-23T04:45:29;4.72;;;0.90;;
23490;SDS011;14683;50.038;8.078;2024-02-23T04:48:30;3.30;;;1.00;;
23490;SDS011;14683;50.038;8.078;2024-02-23T04:51:31;3.90;;;1.05;;
23490;SDS011;14683;50.038;8.078;2024-02-23T04:54:33;2.72;;;1.00;;
23490;SDS011;14683;50.038;8.078;2024-02-23T04:57:36;3.47;;;1.15;;
23490;SDS011;14683;50.038;8.078;2024-02-23T05:00:37;4.05;;;0.98;;
23490;SDS011;14683;50.038;8.078;2024-02-23T05:03:38;3.33;;;1.00;;
23490;SDS011;14683;50.038;8.078;2024-02-23T05:06:39;2.78;;;1.10;;
23490;SDS011;14683;50.038;8.078;2024-02-23T05:09:41;2.80;;;0.85;;
23490;SDS011;14683;50.038;8.078;2024-02-23T05:12:42;3.20;;;0.98;;
23490;SDS011;14683;50.038;8.078;2024-02-23T05:15:43;1.88;;;0.90;;
23490;SDS011;14683;50.038;8.078;2024-02-23T05:18:44;3.33;;;1.00;;
23490;SDS011;14683;50.038;8.078;2024-02-23T05:21:47;5.03;;;1.00;;
23490;SDS011;14683;50.038;8.078;2024-02-23T05:24:48;2.25;;;0.75;;
23490;SDS011;14683;50.038;8.078;2024-02-23T05:27:49;3.35;;;0.90;;
23490;SDS011;14683;50.038;8.078;2024-02-23T05:30:50;2.95;;;0.88;;
23490;SDS011;14683;50.038;8.078;2024-02-23T05:33:52;7.05;;;1.08;;
23490;SDS011;14683;50.038;8.078;2024-02-23T05:36:53;1.40;;;0.90;;
23490;SDS011;14683;50.038;8.078;2024-02-23T05:39:54;3.80;;;1.27;;
23490;SDS011;14683;50.038;8.078;2024-02-23T05:42:55;1.80;;;0.77;;
23490;SDS011;14683;50.038;8.078;2024-02-23T05:45:57;3.22;;;0.90;;
23490;SDS011;14683;50.038;8.078;2024-02-23T05:48:59;3.75;;;0.90;;
23490;SDS011;14683;50.038;8.078;2024-02-23T05:52:00;4.10;;;0.93;;
23490;SDS011;14683;50.038;8.078;2024-02-23T05:55:02;2.28;;;0.90;;
23490;SDS011;14683;50.038;8.078;2024-02-23T05:58:04;1.63;;;0.75;;
23490;SDS011;14683;50.038;8.078;2024-02-23T06:01:06;3.28;;;1.08;;
23490;SDS011;14683;50.038;8.078;2024-02-23T06:04:07;6.85;;;1.17;;
23490;SDS011;14683;50.038;8.078;2024-02-23T06:07:08;3.05;;;1.27;;
23490;SDS011;14683;50.038;8.078;2024-02-23T06:10:13;2.13;;;1.00;;
23490;SDS011;14683;50.038;8.078;2024-02-23T06:13:15;2.63;;;1.13;;
23490;SDS011;14683;50.038;8.078;2024-02-23T06:16:16;2.40;;;0.98;;
23490;SDS011;14683;50.038;8.078;2024-02-23T06:19:17;5.40;;;1.30;;
23490;SDS011;14683;50.038;8.078;2024-02-23T06:22:18;3.75;;;1.30;;
23490;SDS011;14683;50.038;8.078;2024-02-23T06:25:21;4.25;;;1.55;;
23490;SDS011;14683;50.038;8.078;2024-02-23T06:28:22;4.85;;;1.48;;
23490;SDS011;14683;50.038;8.078;2024-02-23T06:31:23;3.83;;;1.30;;
23490;SDS011;14683;50.038;8.078;2024-02-23T06:34:25;5.38;;;1.45;;
23490;SDS011;14683;50.038;8.078;2024-02-23T06:37:26;4.03;;;1.38;;
23490;SDS011;14683;50.038;8.078;2024-02-23T06:40:27;7.05;;;1.40;;
23490;SDS011;14683;50.038;8.078;2024-02-23T06:43:28;2.85;;;1.33;;
23490;SDS011;14683;50.038;8.078;2024-02-23T06:46:29;8.48;;;1.80;;
23490;SDS011;14683;50.038;8.078;2024-02-23T06:49:30;3.38;;;1.50;;
23490;SDS011;14683;50.038;8.078;2024-02-23T06:52:31;4.18;;;1.40;;
23490;SDS011;14683;50.038;8.078;2024-02-23T06:55:34;3.83;;;1.20;;
23490;SDS011;14683;50.038;8.078;2024-02-23T06:58:35;4.88;;;1.10;;
23490;SDS011;14683;50.038;8.078;2024-02-23T07:01:36;2.90;;;1.13;;
23490;SDS011;14683;50.038;8.078;2024-02-23T07:04:48;3.63;;;0.95;;
23490;SDS011;14683;50.038;8.078;2024-02-23T07:07:52;3.78;;;0.88;;
23490;SDS011;14683;50.038;8.078;2024-02-23T07:10:53;4.80;;;1.65;;
23490;SDS011;14683;50.038;8.078;2024-02-23T07:13:55;6.82;;;1.27;;
23490;SDS011;14683;50.038;8.078;2024-02-23T07:16:56;4.93;;;1.23;;
23490;SDS011;14683;50.038;8.078;2024-02-23T07:19:57;7.20;;;1.40;;
23490;SDS011;14683;50.038;8.078;2024-02-23T07:23:06;2.13;;;1.00;;
23490;SDS011;14683;50.038;8.078;2024-02-23T07:26:08;3.55;;;1.10;;
23490;SDS011;14683;50.038;8.078;2024-02-23T07:29:09;6.05;;;1.52;;
23490;SDS011;14683;50.038;8.078;2024-02-23T07:32:10;5.82;;;1.20;;
23490;SDS011;14683;50.038;8.078;2024-02-23T07:35:12;3.08;;;1.20;;
23490;SDS011;14683;50.038;8.078;2024-02-23T07:38:13;4.78;;;1.55;;
23490;SDS011;14683;50.038;8.078;2024-02-23T07:41:15;4.05;;;1.10;;
23490;SDS011;14683;50.038;8.078;2024-02-23T07:44:18;3.05;;;1.33;;
23490;SDS011;14683;50.038;8.078;2024-02-23T07:47:19;3.55;;;1.35;;
23490;SDS011;14683;50.038;8.078;2024-02-23T07:50:20;4.07;;;1.23;;
23490;SDS011;14683;50.038;8.078;2024-02-23T07:53:21;8.02;;;1.30;;
23490;SDS011;14683;50.038;8.078;2024-02-23T07:56:23;7.05;;;1.88;;
23490;SDS011;14683;50.038;8.078;2024-02-23T07:59:24;3.90;;;1.10;;
23490;SDS011;14683;50.038;8.078;2024-02-23T08:02:25;4.88;;;1.50;;
23490;SDS011;14683;50.038;8.078;2024-02-23T08:05:27;6.00;;;1.45;;
23490;SDS011;14683;50.038;8.078;2024-02-23T08:08:28;5.85;;;1.70;;
23490;SDS011;14683;50.038;8.078;2024-02-23T08:11:33;4.00;;;1.27;;
23490;SDS011;14683;50.038;8.078;2024-02-23T08:14:34;4.65;;;1.50;;
23490;SDS011;14683;50.038;8.078;2024-02-23T08:17:35;4.93;;;1.42;;
23490;SDS011;14683;50.038;8.078;2024-02-23T08:20:36;6.93;;;1.45;;
23490;SDS011;14683;50.038;8.078;2024-02-23T08:23:38;7.10;;;1.35;;
23490;SDS011;14683;50.038;8.078;2024-02-23T08:26:39;4.20;;;1.13;;
23490;SDS011;14683;50.038;8.078;2024-02-23T08:29:41;7.72;;;1.50;;
23490;SDS011;14683;50.038;8.078;2024-02-23T08:32:42;4.13;;;1.58;;
23490;SDS011;14683;50.038;8.078;2024-02-23T08:35:44;4.93;;;1.83;;
23490;SDS011;14683;50.038;8.078;2024-02-23T08:38:45;3.88;;;1.45;;
23490;SDS011;14683;50.038;8.078;2024-02-23T08:41:46;3.55;;;1.48;;
23490;SDS011;14683;50.038;8.078;2024-02-23T08:44:47;7.13;;;1.70;;
23490;SDS011;14683;50.038;8.078;2024-02-23T08:47:48;9.00;;;1.60;;
23490;SDS011;14683;50.038;8.078;2024-02-23T08:50:49;5.47;;;1.40;;
23490;SDS011;14683;50.038;8.078;2024-02-23T08:53:51;5.75;;;1.23;;
23490;SDS011;14683;50.038;8.078;2024-02-23T08:56:52;6.72;;;1.30;;
23490;SDS011;14683;50.038;8.078;2024-02-23T08:59:53;6.32;;;1.40;;
23490;SDS011;14683;50.038;8.078;2024-02-23T09:02:54;5.13;;;1.45;;
23490;SDS011;14683;50.038;8.078;2024-02-23T09:05:55;4.82;;;1.83;;
23490;SDS011;14683;50.038;8.078;2024-02-23T09:08:57;7.78;;;1.23;;
23490;SDS011;14683;50.038;8.078;2024-02-23T09:11:58;5.88;;;1.52;;
23490;SDS011;14683;50.038;8.078;2024-02-23T09:14:59;6.82;;;1.58;;
23490;SDS011;14683;50.038;8.078;2024-02-23T09:18:00;7.15;;;1.40;;
23490;SDS011;14683;50.038;8.078;2024-02-23T09:21:01;4.47;;;1.17;;
23490;SDS011;14683;50.038;8.078;2024-02-23T09:24:03;3.58;;;1.33;;
23490;SDS011;14683;50.038;8.078;2024-02-23T09:27:05;8.02;;;1.50;;
23490;SDS011;14683;50.038;8.078;2024-02-23T09:30:06;5.78;;;1.80;;
23490;SDS011;14683;50.038;8.078;2024-02-23T09:33:08;5.40;;;1.33;;
23490;SDS011;14683;50.038;8.078;2024-02-23T09:36:09;4.60;;;1.20;;
23490;SDS011;14683;50.038;8.078;2024-02-23T09:39:10;6.03;;;1.30;;
23490;SDS011;14683;50.038;8.078;2024-02-23T09:42:11;6.32;;;1.60;;
23490;SDS011;14683;50.038;8.078;2024-02-23T09:45:12;6.93;;;1.40;;
23490;SDS011;14683;50.038;8.078;2024-02-23T09:48:14;4.55;;;1.45;;
23490;SDS011;14683;50.038;8.078;2024-02-23T09:51:19;5.55;;;1.00;;
23490;SDS011;14683;50.038;8.078;2024-02-23T09:54:21;7.53;;;1.40;;
23490;SDS011;14683;50.038;8.078;2024-02-23T09:57:22;5.60;;;1.42;;
23490;SDS011;14683;50.038;8.078;2024-02-23T10:00:23;5.47;;;1.30;;
23490;SDS011;14683;50.038;8.078;2024-02-23T10:03:25;4.57;;;1.10;;
23490;SDS011;14683;50.038;8.078;2024-02-23T10:06:29;4.30;;;1.10;;
23490;SDS011;14683;50.038;8.078;2024-02-23T10:09:30;4.38;;;1.05;;
23490;SDS011;14683;50.038;8.078;2024-02-23T10:12:33;4.28;;;1.55;;
23490;SDS011;14683;50.038;8.078;2024-02-23T10:15:34;7.07;;;1.27;;
23490;SDS011;14683;50.038;8.078;2024-02-23T10:18:37;8.60;;;1.15;;
23490;SDS011;14683;50.038;8.078;2024-02-23T10:21:39;3.60;;;1.23;;
23490;SDS011;14683;50.038;8.078;2024-02-23T10:24:42;4.97;;;1.15;;
23490;SDS011;14683;50.038;8.078;2024-02-23T10:27:43;2.60;;;0.98;;
23490;SDS011;14683;50.038;8.078;2024-02-23T10:30:45;3.33;;;1.00;;
23490;SDS011;14683;50.038;8.078;2024-02-23T10:33:46;2.47;;;1.27;;
23490;SDS011;14683;50.038;8.078;2024-02-23T10:36:48;2.80;;;1.27;;
23490;SDS011;14683;50.038;8.078;2024-02-23T10:39:51;5.13;;;1.38;;
23490;SDS011;14683;50.038;8.078;2024-02-23T10:42:55;4.00;;;1.10;;
23490;SDS011;14683;50.038;8.078;2024-02-23T10:45:57;5.07;;;1.27;;
23490;SDS011;14683;50.038;8.078;2024-02-23T10:49:00;5.55;;;1.45;;
23490;SDS011;14683;50.038;8.078;2024-02-23T10:52:02;5.43;;;1.38;;
23490;SDS011;14683;50.038;8.078;2024-02-23T10:55:04;5.32;;;1.15;;
23490;SDS011;14683;50.038;8.078;2024-02-23T10:58:07;5.53;;;1.30;;
23490;SDS011;14683;50.038;8.078;2024-02-23T11:01:12;6.00;;;1.35;;
23490;SDS011;14683;50.038;8.078;2024-02-23T11:04:14;3.30;;;1.17;;
23490;SDS011;14683;50.038;8.078;2024-02-23T11:07:19;4.78;;;1.00;;
23490;SDS011;14683;50.038;8.078;2024-02-23T11:10:22;5.85;;;1.10;;
23490;SDS011;14683;50.038;8.078;2024-02-23T11:13:30;7.13;;;1.40;;
23490;SDS011;14683;50.038;8.078;2024-02-23T11:16:32;5.20;;;1.00;;
23490;SDS011;14683;50.038;8.078;2024-02-23T11:19:34;4.90;;;1.20;;
23490;SDS011;14683;50.038;8.078;2024-02-23T11:22:40;4.70;;;0.93;;
23490;SDS011;14683;50.038;8.078;2024-02-23T11:25:41;3.33;;;1.13;;
23490;SDS011;14683;50.038;8.078;2024-02-23T11:31:45;1.55;;;1.10;;
23490;SDS011;14683;50.038;8.078;2024-02-23T11:34:56;3.67;;;1.27;;
23490;SDS011;14683;50.038;8.078;2024-02-23T11:37:58;2.78;;;1.00;;
23490;SDS011;14683;50.038;8.078;2024-02-23T11:41:01;3.15;;;0.73;;
23490;SDS011;14683;50.038;8.078;2024-02-23T11:44:03;2.10;;;0.70;;
23490;SDS011;14683;50.038;8.078;2024-02-23T11:47:07;1.23;;;0.70;;
23490;SDS011;14683;50.038;8.078;2024-02-23T11:50:09;3.20;;;1.00;;
23490;SDS011;14683;50.038;8.078;2024-02-23T11:53:11;3.60;;;0.88;;
23490;SDS011;14683;50.038;8.078;2024-02-23T11:56:12;4.18;;;1.00;;
23490;SDS011;14683;50.038;8.078;2024-02-23T11:59:13;2.95;;;1.05;;
23490;SDS011;14683;50.038;8.078;2024-02-23T12:02:15;6.28;;;1.30;;
23490;SDS011;14683;50.038;8.078;2024-02-23T12:05:16;3.92;;;1.20;;
23490;SDS011;14683;50.038;8.078;2024-02-23T12:08:17;2.60;;;1.33;;
23490;SDS011;14683;50.038;8.078;2024-02-23T12:11:19;2.75;;;0.75;;
23490;SDS011;14683;50.038;8.078;2024-02-23T12:14:20;2.85;;;1.05;;
23490;SDS011;14683;50.038;8.078;2024-02-23T12:17:22;5.03;;;1.20;;
23490;SDS011;14683;50.038;8.078;2024-02-23T12:20:23;3.45;;;0.95;;
23490;SDS011;14683;50.038;8.078;2024-02-23T12:23:24;2.72;;;0.82;;
23490;SDS011;14683;50.038;8.078;2024-02-23T12:26:25;3.90;;;1.20;;
23490;SDS011;14683;50.038;8.078;2024-02-23T12:29:26;10.30;;;1.50;;
23490;SDS011;14683;50.038;8.078;2024-02-23T12:32:28;3.30;;;1.10;;
23490;SDS011;14683;50.038;8.078;2024-02-23T12:35:29;7.55;;;1.20;;
23490;SDS011;14683;50.038;8.078;2024-02-23T12:38:31;2.75;;;0.95;;
23490;SDS011;14683;50.038;8.078;2024-02-23T12:41:32;4.95;;;0.93;;
23490;SDS011;14683;50.038;8.078;2024-02-23T12:44:34;4.05;;;1.00;;
23490;SDS011;14683;50.038;8.078;2024-02-23T12:47:35;2.45;;;0.98;;
23490;SDS011;14683;50.038;8.078;2024-02-23T12:50:37;3.47;;;1.15;;
23490;SDS011;14683;50.038;8.078;2024-02-23T12:53:38;2.95;;;1.15;;
23490;SDS011;14683;50.038;8.078;2024-02-23T12:56:41;4.47;;;1.08;;
23490;SDS011;14683;50.038;8.078;2024-02-23T12:59:43;4.63;;;1.20;;
23490;SDS011;14683;50.038;8.078;2024-02-23T13:02:44;5.18;;;1.67;;
23490;SDS011;14683;50.038;8.078;2024-02-23T13:05:45;3.95;;;1.17;;
23490;SDS011;14683;50.038;8.078;2024-02-23T13:08:47;6.38;;;1.40;;
23490;SDS011;14683;50.038;8.078;2024-02-23T13:11:48;3.88;;;1.05;;
23490;SDS011;14683;50.038;8.078;2024-02-23T13:14:50;4.57;;;1.73;;
23490;SDS011;14683;50.038;8.078;2024-02-23T13:17:52;5.22;;;1.77;;
23490;SDS011;14683;50.038;8.078;2024-02-23T13:20:53;5.22;;;0.90;;
23490;SDS011;14683;50.038;8.078;2024-02-23T13:23:54;5.70;;;1.10;;
23490;SDS011;14683;50.038;8.078;2024-02-23T13:26:55;2.42;;;0.77;;
23490;SDS011;14683;50.038;8.078;2024-02-23T13:29:56;2.78;;;0.90;;
23490;SDS011;14683;50.038;8.078;2024-02-23T13:32:58;3.80;;;1.20;;
23490;SDS011;14683;50.038;8.078;2024-02-23T13:35:59;2.83;;;1.10;;
23490;SDS011;14683;50.038;8.078;2024-02-23T13:39:00;3.33;;;1.17;;
23490;SDS011;14683;50.038;8.078;2024-02-23T13:42:01;1.80;;;0.90;;
23490;SDS011;14683;50.038;8.078;2024-02-23T13:45:03;5.22;;;1.10;;
23490;SDS011;14683;50.038;8.078;2024-02-23T13:48:04;2.67;;;0.77;;
23490;SDS011;14683;50.038;8.078;2024-02-23T13:51:06;4.70;;;1.40;;
23490;SDS011;14683;50.038;8.078;2024-02-23T13:54:07;3.28;;;0.88;;
23490;SDS011;14683;50.038;8.078;2024-02-23T13:57:08;3.47;;;0.75;;
23490;SDS011;14683;50.038;8.078;2024-02-23T14:00:10;5.75;;;1.10;;
23490;SDS011;14683;50.038;8.078;2024-02-23T14:03:15;2.67;;;0.90;;
23490;SDS011;14683;50.038;8.078;2024-02-23T14:06:18;3.97;;;0.90;;
23490;SDS011;14683;50.038;8.078;2024-02-23T14:09:19;2.90;;;0.90;;
23490;SDS011;14683;50.038;8.078;2024-02-23T14:12:21;3.60;;;0.90;;
23490;SDS011;14683;50.038;8.078;2024-02-23T14:15:22;3.25;;;1.00;;
23490;SDS011;14683;50.038;8.078;2024-02-23T14:18:23;1.80;;;0.77;;
23490;SDS011;14683;50.038;8.078;2024-02-23T14:21:24;1.58;;;0.70;;
23490;SDS011;14683;50.038;8.078;2024-02-23T14:24:26;2.70;;;0.82;;
23490;SDS011;14683;50.038;8.078;2024-02-23T14:27:27;2.45;;;0.90;;
23490;SDS011;14683;50.038;8.078;2024-02-23T14:30:32;2.78;;;1.00;;
23490;SDS011;14683;50.038;8.078;2024-02-23T14:33:33;1.40;;;0.95;;
23490;SDS011;14683;50.038;8.078;2024-02-23T14:36:34;1.65;;;0.65;;
23490;SDS011;14683;50.038;8.078;2024-02-23T14:39:35;1.77;;;0.85;;
23490;SDS011;14683;50.038;8.078;2024-02-23T14:42:37;1.90;;;1.10;;
23490;SDS011;14683;50.038;8.078;2024-02-23T14:45:39;1.83;;;1.05;;
23490;SDS011;14683;50.038;8.078;2024-02-23T14:48:41;2.03;;;1.08;;
23490;SDS011;14683;50.038;8.078;2024-02-23T14:51:42;3.22;;;0.88;;
23490;SDS011;14683;50.038;8.078;2024-02-23T14:54:43;2.20;;;0.80;;
23490;SDS011;14683;50.038;8.078;2024-02-23T14:57:44;2.80;;;0.90;;
23490;SDS011;14683;50.038;8.078;2024-02-23T15:00:46;2.20;;;0.80;;
23490;SDS011;14683;50.038;8.078;2024-02-23T15:03:47;2.75;;;0.80;;
23490;SDS011;14683;50.038;8.078;2024-02-23T15:06:49;2.65;;;0.73;;
23490;SDS011;14683;50.038;8.078;2024-02-23T15:09:50;2.25;;;0.90;;
23490;SDS011;14683;50.038;8.078;2024-02-23T15:12:51;2.50;;;1.00;;
23490;SDS011;14683;50.038;8.078;2024-02-23T15:15:52;1.48;;;0.60;;
23490;SDS011;14683;50.038;8.078;2024-02-23T15:18:55;2.22;;;0.90;;
23490;SDS011;14683;50.038;8.078;2024-02-23T15:21:56;1.52;;;0.73;;
23490;SDS011;14683;50.038;8.078;2024-02-23T15:24:57;1.85;;;0.80;;
23490;SDS011;14683;50.038;8.078;2024-02-23T15:28:00;2.45;;;0.82;;
23490;SDS011;14683;50.038;8.078;2024-02-23T15:31:01;3.28;;;0.95;;
23490;SDS011;14683;50.038;8.078;2024-02-23T15:34:03;2.80;;;1.08;;
23490;SDS011;14683;50.038;8.078;2024-02-23T15:37:04;3.70;;;1.00;;
23490;SDS011;14683;50.038;8.078;2024-02-23T15:40:07;2.17;;;0.90;;
23490;SDS011;14683;50.038;8.078;2024-02-23T15:43:08;5.45;;;1.15;;
23490;SDS011;14683;50.038;8.078;2024-02-23T15:46:09;3.28;;;1.00;;
23490;SDS011;14683;50.038;8.078;2024-02-23T15:49:11;2.17;;;0.68;;
23490;SDS011;14683;50.038;8.078;2024-02-23T15:52:12;4.28;;;1.05;;
23490;SDS011;14683;50.038;8.078;2024-02-23T15:55:13;2.67;;;0.93;;
23490;SDS011;14683;50.038;8.078;2024-02-23T15:58:15;1.90;;;0.68;;
23490;SDS011;14683;50.038;8.078;2024-02-23T16:01:19;1.73;;;0.65;;
23490;SDS011;14683;50.038;8.078;2024-02-23T16:04:20;2.35;;;0.93;;
23490;SDS011;14683;50.038;8.078;2024-02-23T16:07:21;2.88;;;0.80;;
23490;SDS011;14683;50.038;8.078;2024-02-23T16:10:23;1.52;;;0.75;;
23490;SDS011;14683;50.038;8.078;2024-02-23T16:13:24;3.15;;;1.20;;
23490;SDS011;14683;50.038;8.078;2024-02-23T16:16:25;1.85;;;0.88;;
23490;SDS011;14683;50.038;8.078;2024-02-23T16:19:26;1.50;;;1.20;;
23490;SDS011;14683;50.038;8.078;2024-02-23T16:22:27;3.00;;;1.05;;
23490;SDS011;14683;50.038;8.078;2024-02-23T16:25:28;2.15;;;1.42;;
23490;SDS011;14683;50.038;8.078;2024-02-23T16:28:30;4.43;;;1.20;;
23490;SDS011;14683;50.038;8.078;2024-02-23T16:31:31;3.63;;;1.30;;
23490;SDS011;14683;50.038;8.078;2024-02-23T16:34:35;5.97;;;2.20;;
23490;SDS011;14683;50.038;8.078;2024-02-23T16:37:37;4.15;;;1.20;;
23490;SDS011;14683;50.038;8.078;2024-02-23T16:40:38;2.53;;;1.25;;
23490;SDS011;14683;50.038;8.078;2024-02-23T16:43:41;2.33;;;1.27;;
23490;SDS011;14683;50.038;8.078;2024-02-23T16:46:42;2.58;;;1.20;;
23490;SDS011;14683;50.038;8.078;2024-02-23T16:49:43;2.90;;;1.25;;
23490;SDS011;14683;50.038;8.078;2024-02-23T16:52:44;4.22;;;1.05;;
23490;SDS011;14683;50.038;8.078;2024-02-23T16:55:45;4.20;;;1.42;;
23490;SDS011;14683;50.038;8.078;2024-02-23T16:58:46;4.20;;;1.30;;
23490;SDS011;14683;50.038;8.078;2024-02-23T17:01:48;4.45;;;2.33;;
23490;SDS011;14683;50.038;8.078;2024-02-23T17:04:49;5.03;;;1.80;;
23490;SDS011;14683;50.038;8.078;2024-02-23T17:07:50;4.05;;;1.67;;
23490;SDS011;14683;50.038;8.078;2024-02-23T17:10:51;4.63;;;1.40;;
23490;SDS011;14683;50.038;8.078;2024-02-23T17:13:52;4.78;;;1.40;;
23490;SDS011;14683;50.038;8.078;2024-02-23T17:16:55;5.13;;;1.40;;
23490;SDS011;14683;50.038;8.078;2024-02-23T17:19:57;3.00;;;1.27;;
23490;SDS011;14683;50.038;8.078;2024-02-23T17:22:58;3.08;;;1.00;;
23490;SDS011;14683;50.038;8.078;2024-02-23T17:25:59;4.15;;;1.15;;
23490;SDS011;14683;50.038;8.078;2024-02-23T17:29:00;2.47;;;1.15;;
23490;SDS011;14683;50.038;8.078;2024-02-23T17:32:01;3.53;;;0.90;;
23490;SDS011;14683;50.038;8.078;2024-02-23T17:35:02;3.55;;;1.10;;
23490;SDS011;14683;50.038;8.078;2024-02-23T17:38:04;1.63;;;0.70;;
23490;SDS011;14683;50.038;8.078;2024-02-23T17:41:05;2.63;;;1.00;;
23490;SDS011;14683;50.038;8.078;2024-02-23T17:44:06;6.07;;;1.73;;
23490;SDS011;14683;50.038;8.078;2024-02-23T17:47:08;7.45;;;1.70;;
23490;SDS011;14683;50.038;8.078;2024-02-23T17:50:09;4.20;;;2.03;;
23490;SDS011;14683;50.038;8.078;2024-02-23T17:53:11;4.55;;;1.42;;
23490;SDS011;14683;50.038;8.078;2024-02-23T17:56:14;4.72;;;1.83;;
23490;SDS011;14683;50.038;8.078;2024-02-23T17:59:16;6.53;;;1.65;;
23490;SDS011;14683;50.038;8.078;2024-02-23T18:02:17;5.50;;;1.65;;
23490;SDS011;14683;50.038;8.078;2024-02-23T18:05:18;4.35;;;1.58;;
23490;SDS011;14683;50.038;8.078;2024-02-23T18:08:19;5.10;;;1.92;;
23490;SDS011;14683;50.038;8.078;2024-02-23T18:11:20;4.20;;;1.30;;
23490;SDS011;14683;50.038;8.078;2024-02-23T18:14:22;3.22;;;1.52;;
23490;SDS011;14683;50.038;8.078;2024-02-23T18:17:23;4.60;;;1.38;;
23490;SDS011;14683;50.038;8.078;2024-02-23T18:20:24;4.22;;;1.45;;
23490;SDS011;14683;50.038;8.078;2024-02-23T18:23:26;5.60;;;1.77;;
23490;SDS011;14683;50.038;8.078;2024-02-23T18:26:27;3.90;;;1.40;;
23490;SDS011;14683;50.038;8.078;2024-02-23T18:29:28;4.80;;;1.77;;
23490;SDS011;14683;50.038;8.078;2024-02-23T18:32:29;4.78;;;1.75;;
23490;SDS011;14683;50.038;8.078;2024-02-23T18:35:30;7.13;;;1.90;;
23490;SDS011;14683;50.038;8.078;2024-02-23T18:38:32;2.80;;;1.70;;
23490;SDS011;14683;50.038;8.078;2024-02-23T18:41:34;5.75;;;2.03;;
23490;SDS011;14683;50.038;8.078;2024-02-23T18:44:35;4.47;;;2.35;;
23490;SDS011;14683;50.038;8.078;2024-02-23T18:47:36;4.85;;;3.05;;
23490;SDS011;14683;50.038;8.078;2024-02-23T18:50:38;3.75;;;2.53;;
23490;SDS011;14683;50.038;8.078;2024-02-23T18:53:39;7.80;;;4.07;;
23490;SDS011;14683;50.038;8.078;2024-02-23T18:56:40;7.97;;;4.80;;
23490;SDS011;14683;50.038;8.078;2024-02-23T18:59:41;6.93;;;5.00;;
23490;SDS011;14683;50.038;8.078;2024-02-23T19:02:42;6.60;;;4.75;;
23490;SDS011;14683;50.038;8.078;2024-02-23T19:05:43;7.78;;;4.63;;
23490;SDS011;14683;50.038;8.078;2024-02-23T19:08:45;5.68;;;4.25;;
23490;SDS011;14683;50.038;8.078;2024-02-23T19:11:46;6.70;;;3.55;;
23490;SDS011;14683;50.038;8.078;2024-02-23T19:14:48;4.93;;;3.95;;
23490;SDS011;14683;50.038;8.078;2024-02-23T19:17:49;5.45;;;2.90;;
23490;SDS011;14683;50.038;8.078;2024-02-23T19:20:50;5.50;;;2.58;;
23490;SDS011;14683;50.038;8.078;2024-02-23T19:23:51;4.30;;;2.20;;
23490;SDS011;14683;50.038;8.078;2024-02-23T19:26:52;2.65;;;1.58;;
23490;SDS011;14683;50.038;8.078;2024-02-23T19:29:54;3.30;;;2.03;;
23490;SDS011;14683;50.038;8.078;2024-02-23T19:32:55;3.20;;;2.60;;
23490;SDS011;14683;50.038;8.078;2024-02-23T19:35:56;5.45;;;2.03;;
23490;SDS011;14683;50.038;8.078;2024-02-23T19:38:58;3.40;;;1.90;;
23490;SDS011;14683;50.038;8.078;2024-02-23T19:41:59;3.35;;;2.03;;
23490;SDS011;14683;50.038;8.078;2024-02-23T19:45:00;2.95;;;1.95;;
23490;SDS011;14683;50.038;8.078;2024-02-23T19:48:02;6.97;;;2.92;;
23490;SDS011;14683;50.038;8.078;2024-02-23T19:51:04;4.03;;;2.72;;
23490;SDS011;14683;50.038;8.078;2024-02-23T19:54:06;5.40;;;3.35;;
23490;SDS011;14683;50.038;8.078;2024-02-23T19:57:08;5.72;;;4.03;;
23490;SDS011;14683;50.038;8.078;2024-02-23T20:00:09;9.65;;;5.65;;
23490;SDS011;14683;50.038;8.078;2024-02-23T20:03:11;13.93;;;10.07;;
23490;SDS011;14683;50.038;8.078;2024-02-23T20:06:12;12.35;;;7.85;;
23490;SDS011;14683;50.038;8.078;2024-02-23T20:09:13;10.30;;;6.53;;
23490;SDS011;14683;50.038;8.078;2024-02-23T20:12:15;9.05;;;5.35;;
23490;SDS011;14683;50.038;8.078;2024-02-23T20:15:16;6.40;;;5.13;;
23490;SDS011;14683;50.038;8.078;2024-02-23T20:18:17;6.78;;;4.93;;
23490;SDS011;14683;50.038;8.078;2024-02-23T20:21:18;8.27;;;4.70;;
23490;SDS011;14683;50.038;8.078;2024-02-23T20:24:19;5.97;;;4.07;;
23490;SDS011;14683;50.038;8.078;2024-02-23T20:27:21;6.15;;;3.42;;
23490;SDS011;14683;50.038;8.078;2024-02-23T20:30:22;6.80;;;3.70;;
23490;SDS011;14683;50.038;8.078;2024-02-23T20:33:23;9.07;;;5.03;;
23490;SDS011;14683;50.038;8.078;2024-02-23T20:36:24;8.85;;;5.75;;
23490;SDS011;14683;50.038;8.078;2024-02-23T20:39:26;7.15;;;3.97;;
23490;SDS011;14683;50.038;8.078;2024-02-23T20:42:27;8.73;;;5.57;;
23490;SDS011;14683;50.038;8.078;2024-02-23T20:45:28;10.38;;;4.20;;
23490;SDS011;14683;50.038;8.078;2024-02-23T20:48:29;6.15;;;3.90;;
